createdAt,value
2022-10-26T00:01:10.003Z,12.50
2022-10-26T00:03:38.708Z,12.50
2022-10-26T00:06:13.334Z,12.50
2022-10-26T00:08:40.320Z,12.50
2022-10-26T00:11:07.744Z,12.60
2022-10-26T00:13:35.736Z,12.50
2022-10-26T00:16:08.165Z,12.40
2022-10-26T00:18:34.916Z,12.40
2022-10-26T00:21:05.496Z,12.30
2022-10-26T00:23:32.654Z,12.30
2022-10-26T00:26:00.028Z,12.40
2022-10-26T00:28:26.877Z,12.40
2022-10-26T00:30:53.738Z,12.30
2022-10-26T00:33:20.837Z,12.30
2022-10-26T00:35:49.400Z,12.30
2022-10-26T00:38:16.148Z,12.30
2022-10-26T00:40:44.342Z,12.30
2022-10-26T00:43:34.975Z,12.40
2022-10-26T00:46:03.127Z,12.40
2022-10-26T00:48:34.586Z,12.30
2022-10-26T00:51:04.720Z,12.30
2022-10-26T00:53:32.650Z,12.30
2022-10-26T00:56:01.099Z,12.30
2022-10-26T00:58:28.390Z,12.30
2022-10-26T01:00:55.632Z,12.30
2022-10-26T01:03:25.420Z,12.40
2022-10-26T01:05:56.754Z,12.40
2022-10-26T01:08:23.994Z,12.30
2022-10-26T01:10:51.668Z,12.30
2022-10-26T01:13:18.964Z,12.30
2022-10-26T01:15:55.581Z,12.30
2022-10-26T01:18:40.128Z,12.30
2022-10-26T01:21:28.579Z,12.40
2022-10-26T01:24:10.424Z,12.40
2022-10-26T01:27:17.668Z,12.40
2022-10-26T01:29:44.297Z,12.40
2022-10-26T01:32:18.651Z,12.40
2022-10-26T01:34:55.088Z,12.40
2022-10-26T01:37:28.648Z,12.40
2022-10-26T01:40:04.166Z,12.40
2022-10-26T01:42:32.015Z,12.40
2022-10-26T01:45:06.881Z,12.40
2022-10-26T01:47:35.452Z,12.50
2022-10-26T01:50:03.950Z,12.50
2022-10-26T01:52:30.782Z,12.40
2022-10-26T01:55:38.890Z,12.40
2022-10-26T01:58:23.813Z,12.40
2022-10-26T02:01:02.302Z,12.40
2022-10-26T02:03:50.085Z,12.40
2022-10-26T02:06:31.212Z,12.40
2022-10-26T02:09:24.368Z,12.30
2022-10-26T02:11:53.408Z,12.50
2022-10-26T02:14:23.116Z,12.40
2022-10-26T02:16:56.341Z,12.30
2022-10-26T02:19:35.898Z,12.30
2022-10-26T02:22:15.491Z,12.30
2022-10-26T02:24:43.692Z,12.40
2022-10-26T02:27:20.803Z,12.50
2022-10-26T02:29:50.414Z,12.40
2022-10-26T02:32:19.263Z,12.40
2022-10-26T02:34:49.436Z,12.40
2022-10-26T02:37:19.935Z,12.40
2022-10-26T02:39:50.321Z,12.40
2022-10-26T02:42:19.746Z,12.40
2022-10-26T02:44:54.831Z,12.40
2022-10-26T02:47:22.422Z,12.30
2022-10-26T02:49:49.394Z,12.30
2022-10-26T02:52:31.580Z,12.30
2022-10-26T02:55:07.507Z,12.30
2022-10-26T02:57:41.269Z,12.30
2022-10-26T03:02:47.575Z,12.20
2022-10-26T03:05:27.655Z,12.30
2022-10-26T03:07:55.358Z,12.30
2022-10-26T03:10:23.099Z,12.30
2022-10-26T03:12:50.666Z,12.30
2022-10-26T03:15:17.853Z,12.40
2022-10-26T03:17:44.628Z,12.30
2022-10-26T03:20:11.635Z,12.30
2022-10-26T03:22:38.826Z,12.30
2022-10-26T03:25:06.199Z,12.40
2022-10-26T03:27:33.008Z,12.40
2022-10-26T03:29:59.845Z,12.30
2022-10-26T03:32:26.599Z,12.30
2022-10-26T03:34:53.396Z,12.30
2022-10-26T03:37:20.194Z,12.30
2022-10-26T03:39:46.950Z,12.30
2022-10-26T03:42:13.762Z,12.40
2022-10-26T03:44:40.636Z,12.40
2022-10-26T03:47:07.397Z,12.30
2022-10-26T03:49:34.215Z,12.40
2022-10-26T03:52:00.994Z,12.40
2022-10-26T03:54:27.749Z,12.40
2022-10-26T03:56:55.325Z,12.40
2022-10-26T03:59:22.269Z,12.40
2022-10-26T04:01:51.631Z,12.40
2022-10-26T04:04:21.005Z,12.40
2022-10-26T04:06:47.919Z,12.40
2022-10-26T04:09:14.713Z,12.40
2022-10-26T04:11:41.466Z,12.40
2022-10-26T04:14:08.295Z,12.40
2022-10-26T04:16:35.087Z,12.40
2022-10-26T04:19:01.914Z,12.40
2022-10-26T04:21:28.759Z,12.40
2022-10-26T04:23:55.526Z,12.40
2022-10-26T04:26:22.362Z,12.40
2022-10-26T04:28:49.147Z,12.40
2022-10-26T04:31:15.950Z,12.40
2022-10-26T04:33:42.774Z,12.40
2022-10-26T04:36:09.829Z,12.40
2022-10-26T04:38:36.578Z,12.30
2022-10-26T04:41:03.444Z,12.30
2022-10-26T04:43:30.263Z,12.30
2022-10-26T04:45:57.964Z,12.30
2022-10-26T04:51:00.650Z,12.40
2022-10-26T04:53:28.024Z,12.40
2022-10-26T04:55:58.731Z,12.30
2022-10-26T04:58:25.793Z,12.50
2022-10-26T05:00:52.545Z,12.60
2022-10-26T05:03:19.330Z,12.70
2022-10-26T05:05:47.786Z,12.70
2022-10-26T05:08:15.004Z,12.70
2022-10-26T05:10:42.668Z,12.60
2022-10-26T05:13:10.733Z,12.60
2022-10-26T05:15:37.472Z,12.50
2022-10-26T05:18:06.134Z,12.40
2022-10-26T05:20:34.823Z,12.50
2022-10-26T05:23:07.021Z,12.50
2022-10-26T05:25:36.529Z,12.50
2022-10-26T05:28:06.082Z,12.50
2022-10-26T05:30:32.859Z,12.50
2022-10-26T05:33:03.455Z,12.60
2022-10-26T05:35:30.660Z,12.60
2022-10-26T05:37:57.785Z,12.60
2022-10-26T05:40:24.925Z,12.60
2022-10-26T05:42:52.269Z,12.60
2022-10-26T05:45:19.355Z,12.70
2022-10-26T05:47:46.461Z,12.70
2022-10-26T05:50:14.264Z,12.80
2022-10-26T05:52:44.736Z,12.80
2022-10-26T05:55:13.666Z,12.80
2022-10-26T05:57:41.358Z,12.80
2022-10-26T06:00:20.027Z,12.80
2022-10-26T06:03:16.903Z,12.80
2022-10-26T06:05:54.347Z,13.00
2022-10-26T06:08:23.248Z,13.10
2022-10-26T06:10:50.901Z,13.00
2022-10-26T06:13:18.215Z,13.00
2022-10-26T06:16:08.817Z,13.10
2022-10-26T06:18:47.555Z,13.10
2022-10-26T06:21:31.390Z,13.20
2022-10-26T06:24:24.689Z,13.20
2022-10-26T06:27:00.031Z,13.30
2022-10-26T06:29:54.880Z,13.30
2022-10-26T06:32:23.900Z,13.40
2022-10-26T06:34:52.144Z,13.40
2022-10-26T06:37:19.716Z,13.50
2022-10-26T06:39:52.626Z,13.50
2022-10-26T06:42:21.800Z,13.60
2022-10-26T06:44:49.177Z,13.80
2022-10-26T06:47:26.187Z,13.90
2022-10-26T06:50:30.621Z,14.00
2022-10-26T06:53:28.892Z,14.10
2022-10-26T06:55:59.134Z,14.30
2022-10-26T06:58:30.526Z,14.40
2022-10-26T07:00:58.463Z,14.50
2022-10-26T07:03:25.336Z,14.50
2022-10-26T07:05:52.294Z,14.30
2022-10-26T07:08:19.371Z,14.40
2022-10-26T07:10:47.277Z,14.40
2022-10-26T07:13:14.456Z,14.30
2022-10-26T07:15:42.904Z,14.30
2022-10-26T07:18:09.985Z,14.30
2022-10-26T07:20:41.277Z,14.40
2022-10-26T07:23:11.414Z,14.30
2022-10-26T07:25:40.442Z,14.20
2022-10-26T07:28:10.395Z,14.20
2022-10-26T07:30:38.758Z,14.20
2022-10-26T07:33:09.242Z,14.30
2022-10-26T07:35:36.156Z,14.20
2022-10-26T07:38:03.426Z,14.10
2022-10-26T07:40:30.534Z,14.10
2022-10-26T07:42:59.096Z,14.20
2022-10-26T07:45:27.787Z,14.10
2022-10-26T07:47:54.565Z,14.10
2022-10-26T07:50:21.507Z,14.10
2022-10-26T07:52:48.663Z,14.10
2022-10-26T07:55:15.890Z,14.10
2022-10-26T07:57:42.903Z,14.10
2022-10-26T08:00:10.940Z,14.00
2022-10-26T08:02:37.806Z,14.00
2022-10-26T08:05:05.068Z,14.10
2022-10-26T08:07:31.875Z,14.20
2022-10-26T08:09:58.693Z,14.30
2022-10-26T08:12:25.470Z,14.30
2022-10-26T08:14:52.206Z,14.30
2022-10-26T08:17:20.773Z,14.30
2022-10-26T08:19:48.219Z,14.40
2022-10-26T08:24:46.929Z,14.70
2022-10-26T08:27:15.172Z,14.80
2022-10-26T08:29:42.207Z,15.00
2022-10-26T08:32:09.434Z,15.20
2022-10-26T08:34:36.284Z,15.40
2022-10-26T08:37:03.187Z,15.40
2022-10-26T08:39:30.951Z,15.50
2022-10-26T08:42:19.532Z,15.40
2022-10-26T08:44:48.555Z,15.50
2022-10-26T08:47:22.100Z,15.60
2022-10-26T08:50:38.160Z,15.70
2022-10-26T08:53:17.600Z,15.80
2022-10-26T08:55:50.529Z,15.80
2022-10-26T08:58:22.299Z,15.60
2022-10-26T09:00:50.871Z,15.60
2022-10-26T09:03:18.980Z,15.50
2022-10-26T09:06:25.203Z,15.50
2022-10-26T09:09:05.725Z,15.60
2022-10-26T09:11:38.029Z,15.70
2022-10-26T09:14:14.573Z,15.70
2022-10-26T09:17:02.480Z,15.70
2022-10-26T09:19:48.868Z,15.70
2022-10-26T09:22:33.426Z,15.60
2022-10-26T09:25:12.676Z,15.50
2022-10-26T09:28:01.405Z,15.50
2022-10-26T09:30:30.461Z,15.50
2022-10-26T09:33:09.709Z,15.50
2022-10-26T09:36:04.947Z,15.60
2022-10-26T09:38:38.829Z,15.60
2022-10-26T09:41:16.456Z,15.50
2022-10-26T09:44:03.773Z,15.40
2022-10-26T09:47:08.895Z,15.30
2022-10-26T09:49:52.852Z,15.20
2022-10-26T09:52:19.674Z,15.20
2022-10-26T09:54:46.532Z,15.20
2022-10-26T09:57:16.706Z,15.20
2022-10-26T09:59:44.557Z,15.30
2022-10-26T10:02:36.022Z,15.10
2022-10-26T10:05:27.529Z,15.10
2022-10-26T10:08:25.868Z,15.10
2022-10-26T10:11:11.139Z,15.30
2022-10-26T10:13:40.466Z,15.50
2022-10-26T10:16:12.681Z,15.60
2022-10-26T10:18:42.999Z,15.90
2022-10-26T10:21:11.021Z,15.90
2022-10-26T10:23:52.280Z,15.90
2022-10-26T10:26:19.063Z,15.90
2022-10-26T10:29:00.988Z,15.90
2022-10-26T10:31:33.224Z,15.90
2022-10-26T10:34:00.438Z,15.90
2022-10-26T10:36:30.217Z,15.80
2022-10-26T10:38:57.149Z,15.90
2022-10-26T10:41:36.439Z,16.00
2022-10-26T10:44:25.597Z,16.00
2022-10-26T10:47:16.116Z,15.90
2022-10-26T10:49:50.011Z,15.80
2022-10-26T10:52:28.525Z,15.80
2022-10-26T10:55:20.675Z,15.80
2022-10-26T10:58:05.937Z,15.80
2022-10-26T11:00:37.325Z,15.80
2022-10-26T11:03:33.659Z,15.80
2022-10-26T11:06:10.563Z,15.70
2022-10-26T11:08:55.825Z,15.70
2022-10-26T11:11:34.973Z,15.70
2022-10-26T11:14:28.009Z,16.10
2022-10-26T11:17:07.215Z,16.40
2022-10-26T11:19:47.284Z,16.30
2022-10-26T11:22:20.700Z,16.50
2022-10-26T11:24:50.986Z,16.50
2022-10-26T11:27:19.170Z,16.60
2022-10-26T11:29:54.562Z,16.50
2022-10-26T11:32:30.367Z,16.20
2022-10-26T11:35:22.031Z,15.90
2022-10-26T11:38:12.325Z,15.70
2022-10-26T11:40:53.190Z,15.60
2022-10-26T11:44:01.599Z,15.60
2022-10-26T11:46:34.445Z,15.70
2022-10-26T11:49:40.208Z,16.20
2022-10-26T11:52:29.800Z,16.70
2022-10-26T11:55:00.608Z,17.00
2022-10-26T11:57:29.453Z,16.80
2022-10-26T12:00:20.768Z,16.40
2022-10-26T12:02:52.842Z,16.20
2022-10-26T12:05:23.263Z,15.90
2022-10-26T12:08:00.506Z,15.80
2022-10-26T12:10:33.568Z,15.70
2022-10-26T12:13:31.601Z,15.50
2022-10-26T12:16:09.264Z,15.30
2022-10-26T12:18:55.981Z,15.20
2022-10-26T12:21:30.212Z,15.30
2022-10-26T12:24:00.291Z,15.40
2022-10-26T12:26:27.048Z,15.70
2022-10-26T12:29:02.803Z,16.10
2022-10-26T12:31:32.191Z,16.30
2022-10-26T12:34:00.007Z,16.70
2022-10-26T12:36:56.118Z,16.70
2022-10-26T12:39:42.817Z,16.40
2022-10-26T12:42:09.567Z,16.30
2022-10-26T12:44:48.532Z,16.20
2022-10-26T12:47:30.301Z,16.20
2022-10-26T12:50:11.689Z,16.40
2022-10-26T12:52:43.820Z,16.50
2022-10-26T12:55:33.828Z,16.30
2022-10-26T12:58:18.849Z,16.10
2022-10-26T13:01:14.753Z,15.80
2022-10-26T13:04:08.976Z,15.70
2022-10-26T13:07:05.705Z,15.50
2022-10-26T13:09:33.374Z,15.30
2022-10-26T13:12:02.593Z,15.20
2022-10-26T13:14:54.918Z,15.10
2022-10-26T13:17:26.635Z,15.10
2022-10-26T13:20:05.812Z,15.00
2022-10-26T13:22:33.107Z,15.00
2022-10-26T13:25:02.881Z,14.90
2022-10-26T13:27:35.644Z,15.00
2022-10-26T13:30:05.360Z,14.80
2022-10-26T13:32:43.037Z,14.70
2022-10-26T13:35:15.170Z,14.50
2022-10-26T13:37:47.238Z,14.40
2022-10-26T13:40:21.107Z,14.40
2022-10-26T13:43:00.939Z,14.30
2022-10-26T13:45:48.022Z,14.10
2022-10-26T13:48:30.312Z,14.00
2022-10-26T13:51:05.177Z,14.10
2022-10-26T13:53:41.387Z,14.00
2022-10-26T13:56:56.274Z,13.90
2022-10-26T13:59:24.805Z,13.90
2022-10-26T14:02:28.250Z,13.80
2022-10-26T14:05:01.308Z,13.90
2022-10-26T14:07:44.060Z,14.00
2022-10-26T14:10:34.905Z,13.90
2022-10-26T14:13:06.817Z,13.90
2022-10-26T14:15:34.958Z,13.80
2022-10-26T14:18:04.099Z,13.90
2022-10-26T14:20:32.293Z,13.80
2022-10-26T14:22:59.170Z,13.90
2022-10-26T14:25:41.716Z,14.00
2022-10-26T14:28:27.256Z,13.80
2022-10-26T14:30:54.173Z,13.70
2022-10-26T14:33:29.364Z,13.60
2022-10-26T14:35:56.895Z,13.60
2022-10-26T14:38:30.110Z,13.60
2022-10-26T14:40:58.105Z,13.60
2022-10-26T14:43:26.358Z,13.50
2022-10-26T14:45:54.299Z,13.70
2022-10-26T14:48:24.112Z,13.70
2022-10-26T14:51:18.080Z,13.60
2022-10-26T14:53:57.222Z,13.50
2022-10-26T14:56:36.228Z,13.50
2022-10-26T14:59:24.890Z,13.60
2022-10-26T15:01:56.153Z,13.60
2022-10-26T15:04:37.910Z,13.50
2022-10-26T15:07:09.092Z,13.60
2022-10-26T15:09:43.462Z,13.60
2022-10-26T15:12:28.971Z,13.60
2022-10-26T15:14:58.604Z,13.60
2022-10-26T15:17:33.550Z,13.50
2022-10-26T15:20:05.745Z,13.50
2022-10-26T15:22:33.535Z,13.50
2022-10-26T15:25:04.005Z,13.50
2022-10-26T15:27:31.072Z,13.60
2022-10-26T15:30:19.782Z,13.50
2022-10-26T15:32:46.838Z,13.40
2022-10-26T15:35:19.475Z,13.30
2022-10-26T15:37:48.481Z,13.30
2022-10-26T15:40:15.648Z,13.40
2022-10-26T15:42:45.331Z,13.40
2022-10-26T15:45:23.057Z,13.30
2022-10-26T15:47:52.266Z,13.30
2022-10-26T15:50:22.232Z,13.30
2022-10-26T15:52:49.958Z,13.20
2022-10-26T15:55:17.757Z,13.30
2022-10-26T15:57:44.762Z,13.40
2022-10-26T16:00:16.062Z,13.30
2022-10-26T16:02:45.134Z,13.30
2022-10-26T16:05:16.004Z,13.20
2022-10-26T16:07:45.328Z,13.30
2022-10-26T16:10:22.606Z,13.20
2022-10-26T16:12:50.420Z,13.20
2022-10-26T16:15:26.232Z,13.10
2022-10-26T16:17:53.360Z,13.10
2022-10-26T16:20:23.260Z,13.00
2022-10-26T16:22:51.778Z,13.10
2022-10-26T16:25:23.013Z,13.10
2022-10-26T16:27:50.103Z,13.10
2022-10-26T16:30:18.059Z,13.10
2022-10-26T16:32:45.134Z,13.10
2022-10-26T16:35:12.720Z,13.10
2022-10-26T16:37:40.121Z,13.00
2022-10-26T16:40:08.354Z,13.00
2022-10-26T16:42:35.139Z,13.00
2022-10-26T16:45:03.256Z,13.00
2022-10-26T16:47:35.636Z,13.00
2022-10-26T16:50:03.658Z,13.00
2022-10-26T16:52:30.422Z,13.00
2022-10-26T16:54:57.209Z,13.00
2022-10-26T16:57:23.993Z,13.00
2022-10-26T16:59:50.803Z,13.00
2022-10-26T17:02:17.788Z,13.00
2022-10-26T17:04:44.748Z,13.10
2022-10-26T17:07:11.789Z,13.10
2022-10-26T17:09:38.855Z,13.00
2022-10-26T17:12:06.107Z,13.00
2022-10-26T17:14:32.932Z,13.00
2022-10-26T17:16:59.743Z,13.00
2022-10-26T17:19:26.634Z,13.00
2022-10-26T17:21:53.414Z,13.00
2022-10-26T17:24:20.237Z,12.90
2022-10-26T17:26:47.062Z,12.90
2022-10-26T17:29:14.005Z,12.90
2022-10-26T17:31:40.976Z,12.90
2022-10-26T17:34:07.834Z,12.90
2022-10-26T17:36:34.728Z,12.90
2022-10-26T17:39:01.586Z,13.00
2022-10-26T17:41:28.805Z,12.90
2022-10-26T17:43:55.614Z,12.90
2022-10-26T17:46:25.019Z,12.80
2022-10-26T17:48:59.362Z,12.80
2022-10-26T17:51:27.850Z,12.90
2022-10-26T17:53:55.458Z,12.90
2022-10-26T17:56:31.416Z,12.90
2022-10-26T17:59:03.660Z,12.90
2022-10-26T18:01:31.866Z,12.80
2022-10-26T18:03:59.010Z,12.90
2022-10-26T18:06:26.222Z,12.80
2022-10-26T18:08:53.098Z,12.80
2022-10-26T18:11:26.440Z,12.80
2022-10-26T18:13:55.277Z,12.70
2022-10-26T18:16:23.369Z,12.80
2022-10-26T18:19:01.689Z,12.80
2022-10-26T18:21:31.302Z,12.80
2022-10-26T18:23:58.228Z,12.80
2022-10-26T18:26:28.558Z,12.70
2022-10-26T18:28:57.196Z,12.70
2022-10-26T18:31:25.152Z,12.70
2022-10-26T18:33:59.628Z,12.70
2022-10-26T18:36:27.499Z,12.80
2022-10-26T18:38:54.615Z,12.70
2022-10-26T18:41:22.900Z,12.60
2022-10-26T18:43:51.377Z,12.80
2022-10-26T18:46:28.105Z,12.80
2022-10-26T18:48:56.153Z,12.80
2022-10-26T18:51:31.768Z,12.70
2022-10-26T18:53:59.227Z,12.60
2022-10-26T18:56:27.315Z,12.50
2022-10-26T18:58:58.870Z,12.60
2022-10-26T19:01:35.014Z,12.60
2022-10-26T19:04:06.992Z,12.50
2022-10-26T19:06:36.533Z,12.60
2022-10-26T19:09:05.481Z,12.50
2022-10-26T19:11:32.980Z,12.50
2022-10-26T19:14:00.045Z,12.40
2022-10-26T19:16:45.502Z,12.40
2022-10-26T19:19:14.561Z,12.40
2022-10-26T19:21:41.572Z,12.40
2022-10-26T19:24:15.850Z,12.40
2022-10-26T19:26:44.064Z,12.40
2022-10-26T19:29:16.879Z,12.40
2022-10-26T19:31:47.767Z,12.40
2022-10-26T19:34:15.894Z,12.40
2022-10-26T19:36:45.152Z,12.40
2022-10-26T19:39:16.056Z,12.40
2022-10-26T19:41:43.929Z,12.30
2022-10-26T19:44:12.224Z,12.40
2022-10-26T19:46:39.861Z,12.50
2022-10-26T19:49:07.328Z,12.50
2022-10-26T19:51:34.213Z,12.40
2022-10-26T19:54:04.035Z,12.50
2022-10-26T19:56:35.298Z,12.70
2022-10-26T19:59:02.240Z,12.60
2022-10-26T20:01:29.190Z,12.50
2022-10-26T20:03:56.068Z,12.40
2022-10-26T20:06:22.907Z,12.30
2022-10-26T20:08:50.187Z,12.40
2022-10-26T20:11:18.295Z,12.40
2022-10-26T20:13:46.610Z,12.50
2022-10-26T20:16:15.388Z,12.30
2022-10-26T20:18:45.942Z,12.20
2022-10-26T20:21:17.163Z,12.30
2022-10-26T20:23:44.883Z,12.30
2022-10-26T20:26:18.669Z,12.20
2022-10-26T20:28:48.421Z,12.10
2022-10-26T20:31:15.499Z,12.20
2022-10-26T20:33:42.289Z,12.20
2022-10-26T20:36:09.415Z,12.10
2022-10-26T20:38:36.729Z,12.20
2022-10-26T20:41:06.383Z,12.10
2022-10-26T20:43:39.252Z,12.10
2022-10-26T20:46:20.631Z,12.10
2022-10-26T20:48:47.885Z,12.10
2022-10-26T20:51:47.876Z,12.10
2022-10-26T20:55:14.030Z,12.10
2022-10-26T20:57:49.552Z,12.10
2022-10-26T21:00:16.687Z,12.10
2022-10-26T21:02:43.522Z,12.00
2022-10-26T21:05:10.406Z,12.10
2022-10-26T21:07:37.181Z,12.20
2022-10-26T21:10:04.319Z,12.20
2022-10-26T21:12:31.095Z,12.30
2022-10-26T21:14:57.865Z,12.20
2022-10-26T21:17:24.594Z,12.10
2022-10-26T21:19:51.386Z,12.00
2022-10-26T21:22:18.182Z,12.00
2022-10-26T21:24:44.909Z,12.00
2022-10-26T21:27:11.719Z,12.00
2022-10-26T21:29:38.485Z,11.90
2022-10-26T21:32:05.518Z,11.80
2022-10-26T21:34:32.269Z,11.80
2022-10-26T21:36:59.031Z,11.80
2022-10-26T21:39:25.802Z,11.70
2022-10-26T21:41:52.525Z,11.70
2022-10-26T21:44:35.623Z,11.70
2022-10-26T21:47:06.133Z,11.70
2022-10-26T21:49:32.943Z,11.70
2022-10-26T21:51:59.803Z,11.70
2022-10-26T21:54:26.549Z,11.80
2022-10-26T21:56:53.385Z,11.70
2022-10-26T21:59:20.200Z,11.70
2022-10-26T22:01:47.117Z,11.70
2022-10-26T22:04:14.122Z,11.70
2022-10-26T22:06:41.173Z,11.70
2022-10-26T22:09:07.995Z,11.60
2022-10-26T22:11:34.894Z,11.60
2022-10-26T22:14:01.920Z,11.60
2022-10-26T22:16:31.071Z,11.50
2022-10-26T22:19:02.127Z,11.50
2022-10-26T22:21:35.852Z,11.60
2022-10-26T22:24:02.759Z,11.50
2022-10-26T22:26:29.836Z,11.30
2022-10-26T22:28:57.654Z,11.30
2022-10-26T22:31:27.103Z,11.30
2022-10-26T22:34:07.701Z,11.30
2022-10-26T22:36:36.214Z,11.30
2022-10-26T22:39:03.877Z,11.40
2022-10-26T22:41:30.911Z,11.50
2022-10-26T22:43:57.740Z,11.40
2022-10-26T22:46:26.562Z,11.30
2022-10-26T22:49:01.207Z,11.20
2022-10-26T22:51:30.886Z,11.30
2022-10-26T22:54:00.085Z,11.20
2022-10-26T22:56:28.358Z,11.20
2022-10-26T22:58:55.257Z,11.20
2022-10-26T23:01:24.574Z,11.20
2022-10-26T23:03:53.314Z,11.20
2022-10-26T23:06:20.817Z,11.20
2022-10-26T23:08:47.601Z,11.20
2022-10-26T23:11:16.554Z,11.10
2022-10-26T23:13:43.836Z,11.10
2022-10-26T23:16:20.562Z,11.10
2022-10-26T23:18:48.166Z,11.10
2022-10-26T23:21:16.053Z,11.10
2022-10-26T23:23:43.507Z,11.10
2022-10-26T23:26:16.597Z,11.10
2022-10-26T23:28:44.718Z,11.10
2022-10-26T23:31:20.267Z,11.10
2022-10-26T23:33:49.161Z,11.00
2022-10-26T23:36:16.077Z,11.10
2022-10-26T23:38:42.831Z,11.00
2022-10-26T23:41:12.195Z,11.10
2022-10-26T23:43:40.293Z,11.10
2022-10-26T23:46:07.132Z,11.10
2022-10-26T23:48:34.080Z,11.10
2022-10-26T23:51:00.829Z,11.20
2022-10-26T23:53:27.668Z,11.10
2022-10-26T23:55:54.563Z,11.20
2022-10-26T23:58:21.364Z,11.20
